createdAt,value
2024-02-10T00:01:22.969Z,98423.00
2024-02-10T00:03:51.092Z,98429.94
2024-02-10T00:06:17.756Z,98419.75
2024-02-10T00:08:45.420Z,98428.06
2024-02-10T00:11:12.969Z,98428.06
2024-02-10T00:13:41.328Z,98426.69
2024-02-10T00:16:08.285Z,98425.91
2024-02-10T00:18:36.025Z,98425.09
2024-02-10T00:21:03.817Z,98429.09
2024-02-10T00:23:30.402Z,98426.69
2024-02-10T00:25:57.999Z,98425.91
2024-02-10T00:28:26.238Z,98404.28
2024-02-10T00:30:55.962Z,98431.28
2024-02-10T00:33:22.951Z,98421.13
2024-02-10T00:35:49.598Z,98419.53
2024-02-10T00:38:20.598Z,98424.81
2024-02-10T00:40:47.240Z,98425.63
2024-02-10T00:43:14.002Z,98408.78
2024-02-10T00:45:41.282Z,98425.06
2024-02-10T00:48:08.560Z,98427.69
2024-02-10T00:50:35.310Z,98429.31
2024-02-10T00:53:04.164Z,98407.69
2024-02-10T00:55:32.402Z,98422.91
2024-02-10T00:58:05.654Z,98422.63
2024-02-10T01:00:32.991Z,98424.50
2024-02-10T01:02:59.703Z,98423.19
2024-02-10T01:05:26.640Z,98419.69
2024-02-10T01:07:53.566Z,98425.25
2024-02-10T01:10:21.708Z,98440.41
2024-02-10T01:12:48.676Z,98421.13
2024-02-10T01:15:15.218Z,98413.13
2024-02-10T01:17:44.127Z,98432.81
2024-02-10T01:20:13.933Z,98428.59
2024-02-10T01:22:42.914Z,98413.69
2024-02-10T01:25:10.105Z,98421.91
2024-02-10T01:27:36.644Z,98436.63
2024-02-10T01:30:04.503Z,98426.84
2024-02-10T01:32:31.800Z,98438.31
2024-02-10T01:34:58.515Z,98434.84
2024-02-10T01:37:25.281Z,98423.94
2024-02-10T01:39:55.832Z,98409.50
2024-02-10T01:42:28.211Z,98424.69
2024-02-10T01:44:54.730Z,98426.03
2024-02-10T01:47:21.430Z,98432.19
2024-02-10T01:49:48.305Z,98434.63
2024-02-10T01:52:14.952Z,98429.53
2024-02-10T01:54:41.669Z,98433.53
2024-02-10T01:57:09.117Z,98440.47
2024-02-10T01:59:39.151Z,98463.19
2024-02-10T02:02:06.951Z,98445.81
2024-02-10T02:04:36.990Z,98448.75
2024-02-10T02:07:10.183Z,98439.53
2024-02-10T02:09:37.501Z,98444.28
2024-02-10T02:12:08.130Z,98446.06
2024-02-10T02:14:38.516Z,98450.31
2024-02-10T02:17:08.146Z,98434.31
2024-02-10T02:19:34.818Z,98434.38
2024-02-10T02:22:04.280Z,98428.78
2024-02-10T02:24:31.134Z,98428.81
2024-02-10T02:27:01.241Z,98444.84
2024-02-10T02:29:27.739Z,98424.81
2024-02-10T02:31:55.081Z,98425.88
2024-02-10T02:34:23.322Z,98423.50
2024-02-10T02:36:53.786Z,98418.97
2024-02-10T02:39:21.667Z,98430.16
2024-02-10T02:41:48.873Z,98414.44
2024-02-10T02:44:18.401Z,98426.44
2024-02-10T02:46:45.332Z,98419.25
2024-02-10T02:49:16.179Z,98422.72
2024-02-10T02:51:43.347Z,98421.63
2024-02-10T02:54:10.119Z,98419.75
2024-02-10T02:56:36.649Z,98413.88
2024-02-10T02:59:03.194Z,98413.88
2024-02-10T03:01:31.998Z,98414.13
2024-02-10T03:03:58.604Z,98412.25
2024-02-10T03:06:25.274Z,98411.75
2024-02-10T03:08:51.836Z,98413.34
2024-02-10T03:11:19.693Z,98403.44
2024-02-10T03:13:49.474Z,98408.50
2024-02-10T03:16:18.871Z,98408.28
2024-02-10T03:18:49.014Z,98413.59
2024-02-10T03:21:16.644Z,98412.53
2024-02-10T03:23:45.746Z,98421.06
2024-02-10T03:26:12.862Z,98425.88
2024-02-10T03:28:39.999Z,98408.50
2024-02-10T03:31:08.895Z,98421.31
2024-02-10T03:33:36.070Z,98410.88
2024-02-10T03:36:06.996Z,98412.75
2024-02-10T03:38:33.625Z,98417.28
2024-02-10T03:41:00.160Z,98415.38
2024-02-10T03:43:28.289Z,98407.91
2024-02-10T03:45:55.587Z,98407.94
2024-02-10T03:48:22.430Z,98408.28
2024-02-10T03:50:49.716Z,98418.94
2024-02-10T03:53:18.638Z,98410.44
2024-02-10T03:55:45.421Z,98410.75
2024-02-10T03:58:17.294Z,98409.47
2024-02-10T04:00:45.810Z,98415.28
2024-02-10T04:03:13.371Z,98426.22
2024-02-10T04:05:40.591Z,98421.97
2024-02-10T04:08:11.392Z,98423.06
2024-02-10T04:10:38.177Z,98424.66
2024-02-10T04:13:07.233Z,98414.50
2024-02-10T04:15:33.856Z,98415.28
2024-02-10T04:18:01.299Z,98426.47
2024-02-10T04:20:27.893Z,98427.25
2024-02-10T04:22:57.128Z,98436.34
2024-02-10T04:25:24.025Z,98430.22
2024-02-10T04:27:50.583Z,98432.03
2024-02-10T04:30:17.186Z,98436.56
2024-02-10T04:32:48.243Z,98422.72
2024-02-10T04:35:15.693Z,98430.44
2024-02-10T04:37:55.240Z,98427.75
2024-02-10T04:40:25.914Z,98427.69
2024-02-10T04:42:54.017Z,98431.63
2024-02-10T04:45:33.421Z,98414.78
2024-02-10T04:48:01.085Z,98425.22
2024-02-10T04:50:30.047Z,98427.81
2024-02-10T04:52:59.605Z,98426.81
2024-02-10T04:55:26.755Z,98421.75
2024-02-10T04:57:54.262Z,98431.06
2024-02-10T05:00:22.992Z,98424.66
2024-02-10T05:02:52.234Z,98428.94
2024-02-10T05:05:22.299Z,98432.44
2024-02-10T05:07:54.943Z,98429.50
2024-02-10T05:10:21.848Z,98438.56
2024-02-10T05:12:49.926Z,98439.63
2024-02-10T05:15:21.138Z,98434.06
2024-02-10T05:17:52.322Z,98456.44
2024-02-10T05:20:27.013Z,98455.16
2024-02-10T05:22:55.490Z,98459.47
2024-02-10T05:25:24.376Z,98472.22
2024-02-10T05:27:51.918Z,98465.31
2024-02-10T05:30:22.411Z,98470.09
2024-02-10T05:32:51.412Z,98463.16
2024-02-10T05:35:19.640Z,98467.38
2024-02-10T05:37:47.682Z,98472.72
2024-02-10T05:40:15.484Z,98465.53
2024-02-10T05:42:47.034Z,98469.78
2024-02-10T05:45:15.277Z,98479.13
2024-02-10T05:47:41.843Z,98477.78
2024-02-10T05:50:19.156Z,98483.09
2024-02-10T05:52:49.994Z,98486.84
2024-02-10T05:55:21.301Z,98482.88
2024-02-10T05:57:51.267Z,98486.84
2024-02-10T06:00:18.460Z,98499.09
2024-02-10T06:02:45.043Z,98484.69
2024-02-10T06:05:14.127Z,98493.25
2024-02-10T06:07:42.423Z,98508.16
2024-02-10T06:10:11.205Z,98503.06
2024-02-10T06:12:42.157Z,98504.13
2024-02-10T06:15:12.261Z,98504.13
2024-02-10T06:17:39.671Z,98514.00
2024-02-10T06:20:08.577Z,98506.09
2024-02-10T06:22:35.696Z,98499.94
2024-02-10T06:25:03.585Z,98504.41
2024-02-10T06:27:31.227Z,98501.75
2024-02-10T06:29:59.329Z,98511.91
2024-02-10T06:32:26.003Z,98513.16
2024-02-10T06:34:53.125Z,98519.75
2024-02-10T06:37:26.312Z,98520.31
2024-02-10T06:39:53.105Z,98519.50
2024-02-10T06:42:19.766Z,98529.91
2024-02-10T06:44:46.344Z,98519.00
2024-02-10T06:47:12.892Z,98522.47
2024-02-10T06:49:39.543Z,98539.53
2024-02-10T06:52:06.305Z,98543.00
2024-02-10T06:54:32.831Z,98550.41
2024-02-10T06:56:59.499Z,98551.25
2024-02-10T06:59:27.990Z,98557.91
2024-02-10T07:01:56.035Z,98548.56
2024-02-10T07:04:24.209Z,98550.16
2024-02-10T07:06:58.931Z,98552.34
2024-02-10T07:09:25.485Z,98545.63
2024-02-10T07:11:52.083Z,98555.78
2024-02-10T07:14:19.537Z,98554.16
2024-02-10T07:16:47.058Z,98547.81
2024-02-10T07:19:17.496Z,98553.38
2024-02-10T07:21:47.876Z,98548.53
2024-02-10T07:24:14.888Z,98553.28
2024-02-10T07:26:43.842Z,98560.16
2024-02-10T07:29:10.781Z,98570.56
2024-02-10T07:31:39.532Z,98566.91
2024-02-10T07:34:06.132Z,98560.97
2024-02-10T07:36:38.980Z,98564.22
2024-02-10T07:39:08.963Z,98566.31
2024-02-10T07:41:44.906Z,98567.16
2024-02-10T07:44:14.492Z,98571.13
2024-02-10T07:46:41.159Z,98579.72
2024-02-10T07:49:07.856Z,98583.47
2024-02-10T07:51:34.858Z,98580.53
2024-02-10T07:54:01.743Z,98578.94
2024-02-10T07:56:31.133Z,98578.16
2024-02-10T07:59:01.103Z,98579.91
2024-02-10T08:01:28.021Z,98573.94
2024-02-10T08:03:55.788Z,98575.47
2024-02-10T08:06:29.090Z,98572.69
2024-02-10T08:08:58.690Z,98588.94
2024-02-10T08:11:26.825Z,98581.41
2024-02-10T08:13:54.320Z,98594.97
2024-02-10T08:16:23.052Z,98593.78
2024-02-10T08:18:52.494Z,98599.97
2024-02-10T08:21:21.896Z,98604.84
2024-02-10T08:23:53.496Z,98612.44
2024-02-10T08:26:20.899Z,98623.19
2024-02-10T08:28:49.209Z,98625.97
2024-02-10T08:31:17.142Z,98631.56
2024-02-10T08:33:46.148Z,98631.19
2024-02-10T08:36:14.292Z,98624.19
2024-02-10T08:38:41.555Z,98620.41
2024-02-10T08:41:08.149Z,98626.72
2024-02-10T08:43:37.473Z,98633.19
2024-02-10T08:46:04.595Z,98636.53
2024-02-10T08:48:31.359Z,98636.53
2024-02-10T08:50:57.917Z,98636.59
2024-02-10T08:53:25.089Z,98634.66
2024-02-10T08:55:52.182Z,98644.16
2024-02-10T08:58:20.947Z,98644.66
2024-02-10T09:00:47.934Z,98649.19
2024-02-10T09:03:15.063Z,98651.69
2024-02-10T09:05:42.505Z,98649.03
2024-02-10T09:08:09.197Z,98658.66
2024-02-10T09:10:35.863Z,98654.94
2024-02-10T09:13:06.026Z,98661.28
2024-02-10T09:15:32.854Z,98662.06
2024-02-10T09:17:59.475Z,98664.44
2024-02-10T09:20:34.576Z,98659.41
2024-02-10T09:23:01.398Z,98671.66
2024-02-10T09:25:29.253Z,98671.91
2024-02-10T09:28:00.503Z,98664.72
2024-02-10T09:30:27.249Z,98666.00
2024-02-10T09:32:53.813Z,98659.88
2024-02-10T09:35:30.901Z,98656.19
2024-02-10T09:38:00.844Z,98658.91
2024-02-10T09:40:27.693Z,98671.19
2024-02-10T09:42:58.008Z,98668.03
2024-02-10T09:45:25.914Z,98659.06
2024-02-10T09:47:53.225Z,98661.25
2024-02-10T09:50:30.872Z,98670.31
2024-02-10T09:53:01.554Z,98666.78
2024-02-10T09:55:28.299Z,98669.69
2024-02-10T09:57:55.977Z,98684.72
2024-02-10T10:00:22.526Z,98670.34
2024-02-10T10:02:52.070Z,98671.22
2024-02-10T10:05:21.966Z,98684.41
2024-02-10T10:07:53.408Z,98678.16
2024-02-10T10:10:21.132Z,98669.69
2024-02-10T10:12:48.095Z,98660.50
2024-02-10T10:15:14.942Z,98655.91
2024-02-10T10:17:41.556Z,98666.69
2024-02-10T10:20:11.086Z,98656.38
2024-02-10T10:22:38.021Z,98664.63
2024-02-10T10:25:06.736Z,98662.22
2024-02-10T10:27:34.755Z,98666.50
2024-02-10T10:30:02.736Z,98663.28
2024-02-10T10:32:29.746Z,98661.66
2024-02-10T10:34:59.490Z,98671.03
2024-02-10T10:37:26.954Z,98659.13
2024-02-10T10:39:54.970Z,98656.63
2024-02-10T10:42:22.866Z,98652.06
2024-02-10T10:44:52.223Z,98649.75
2024-02-10T10:47:24.739Z,98664.03
2024-02-10T10:49:55.379Z,98662.22
2024-02-10T10:52:25.327Z,98658.75
2024-02-10T10:54:51.978Z,98659.84
2024-02-10T10:57:22.184Z,98662.50
2024-02-10T11:00:00.006Z,98657.69
2024-02-10T11:02:37.457Z,98658.75
2024-02-10T11:05:14.172Z,98649.41
2024-02-10T11:07:44.336Z,98654.72
2024-02-10T11:10:11.025Z,98649.38
2024-02-10T11:12:37.756Z,98662.75
2024-02-10T11:15:10.199Z,98659.56
2024-02-10T11:17:37.322Z,98656.09
2024-02-10T11:20:06.432Z,98668.13
2024-02-10T11:22:36.814Z,98663.28
2024-02-10T11:25:17.332Z,98650.44
2024-02-10T11:27:48.030Z,98660.09
2024-02-10T11:30:14.566Z,98659.56
2024-02-10T11:32:43.716Z,98650.44
2024-02-10T11:35:11.283Z,98653.94
2024-02-10T11:37:38.596Z,98651.72
2024-02-10T11:40:05.815Z,98653.84
2024-02-10T11:42:33.022Z,98649.59
2024-02-10T11:45:03.455Z,98648.50
2024-02-10T11:47:31.999Z,98649.56
2024-02-10T11:49:58.824Z,98647.75
2024-02-10T11:52:27.467Z,98640.75
2024-02-10T11:54:55.969Z,98636.47
2024-02-10T11:57:27.774Z,98633.78
2024-02-10T11:59:56.824Z,98637.25
2024-02-10T12:02:24.389Z,98633.25
2024-02-10T12:04:52.249Z,98636.75
2024-02-10T12:07:19.506Z,98634.03
2024-02-10T12:09:46.095Z,98634.59
2024-02-10T12:12:16.821Z,98625.19
2024-02-10T12:14:43.480Z,98633.75
2024-02-10T12:17:10.111Z,98626.81
2024-02-10T12:19:38.113Z,98624.97
2024-02-10T12:22:06.677Z,98633.81
2024-02-10T12:24:33.246Z,98637.34
2024-02-10T12:26:59.806Z,98639.75
2024-02-10T12:29:30.384Z,98643.75
2024-02-10T12:31:57.081Z,98642.69
2024-02-10T12:34:25.097Z,98638.13
2024-02-10T12:36:51.799Z,98646.72
2024-02-10T12:39:19.833Z,98639.75
2024-02-10T12:41:46.487Z,98648.59
2024-02-10T12:44:13.301Z,98640.03
2024-02-10T12:46:40.040Z,98646.44
2024-02-10T12:49:09.772Z,98638.94
2024-02-10T12:51:36.861Z,98636.25
2024-02-10T12:54:03.632Z,98635.72
2024-02-10T12:56:31.028Z,98645.91
2024-02-10T12:58:58.415Z,98643.19
2024-02-10T13:01:25.692Z,98636.72
2024-02-10T13:03:52.671Z,98641.03
2024-02-10T13:06:20.136Z,98630.31
2024-02-10T13:08:47.437Z,98628.16
2024-02-10T13:11:14.072Z,98630.59
2024-02-10T13:13:45.760Z,98629.75
2024-02-10T13:16:12.554Z,98633.25
2024-02-10T13:18:45.213Z,98631.63
2024-02-10T13:21:17.707Z,98636.94
2024-02-10T13:23:45.197Z,98627.06
2024-02-10T13:26:13.737Z,98623.84
2024-02-10T13:28:43.990Z,98616.91
2024-02-10T13:31:11.015Z,98620.94
2024-02-10T13:33:41.155Z,98619.56
2024-02-10T13:36:22.489Z,98614.44
2024-02-10T13:39:07.706Z,98623.00
2024-02-10T13:41:52.723Z,98606.66
2024-02-10T13:44:37.896Z,98616.78
2024-02-10T13:47:22.963Z,98619.78
2024-02-10T13:50:08.133Z,98617.97
2024-02-10T13:52:53.274Z,98607.22
2024-02-10T13:55:38.523Z,98604.78
2024-02-10T13:58:11.072Z,98611.50
2024-02-10T14:00:40.482Z,98617.91
2024-02-10T14:03:07.595Z,98611.25
2024-02-10T14:06:04.726Z,98610.38
2024-02-10T14:08:48.075Z,98611.25
2024-02-10T14:11:30.783Z,98601.66
2024-02-10T14:13:57.520Z,98604.38
2024-02-10T14:16:30.948Z,98604.66
2024-02-10T14:19:00.717Z,98600.63
2024-02-10T14:21:33.936Z,98608.13
2024-02-10T14:24:01.468Z,98617.81
2024-02-10T14:26:43.330Z,98602.78
2024-02-10T14:29:31.009Z,98601.16
2024-02-10T14:32:04.114Z,98611.38
2024-02-10T14:35:04.982Z,98610.00
2024-02-10T14:37:48.276Z,98609.72
2024-02-10T14:40:20.202Z,98623.97
2024-02-10T14:42:47.153Z,98621.53
2024-02-10T14:45:20.078Z,98628.22
2024-02-10T14:47:46.795Z,98634.94
2024-02-10T14:50:13.618Z,98633.88
2024-02-10T14:52:45.639Z,98630.91
2024-02-10T14:55:15.207Z,98639.47
2024-02-10T14:57:41.725Z,98635.19
2024-02-10T15:00:10.707Z,98644.59
2024-02-10T15:02:40.980Z,98643.22
2024-02-10T15:05:07.726Z,98646.44
2024-02-10T15:07:34.310Z,98642.44
2024-02-10T15:10:00.870Z,98651.28
2024-02-10T15:12:30.864Z,98641.38
2024-02-10T15:15:00.019Z,98643.75
2024-02-10T15:17:26.815Z,98649.41
2024-02-10T15:19:53.472Z,98651.53
2024-02-10T15:22:20.462Z,98651.81
2024-02-10T15:24:47.165Z,98646.19
2024-02-10T15:27:15.585Z,98652.31
2024-02-10T15:29:42.120Z,98648.84
2024-02-10T15:32:10.003Z,98642.97
2024-02-10T15:34:45.327Z,98640.28
2024-02-10T15:37:18.081Z,98633.59
2024-02-10T15:39:44.622Z,98637.34
2024-02-10T15:42:12.493Z,98636.78
2024-02-10T15:44:39.016Z,98638.66
2024-02-10T15:47:05.576Z,98639.75
2024-02-10T15:49:34.075Z,98651.50
2024-02-10T15:52:00.762Z,98635.97
2024-02-10T15:54:27.266Z,98642.41
2024-02-10T15:56:54.149Z,98639.69
2024-02-10T15:59:21.404Z,98646.13
2024-02-10T16:01:51.838Z,98645.03
2024-02-10T16:04:19.833Z,98648.53
2024-02-10T16:06:50.960Z,98656.75
2024-02-10T16:09:20.433Z,98646.06
2024-02-10T16:11:47.001Z,98639.91
2024-02-10T16:14:13.820Z,98639.13
2024-02-10T16:16:40.491Z,98657.78
2024-02-10T16:19:08.421Z,98643.63
2024-02-10T16:21:35.006Z,98653.50
2024-02-10T16:24:03.221Z,98645.47
2024-02-10T16:26:29.898Z,98651.88
2024-02-10T16:28:56.924Z,98646.78
2024-02-10T16:31:25.396Z,98652.66
2024-02-10T16:33:53.759Z,98641.66
2024-02-10T16:36:22.988Z,98645.97
2024-02-10T16:38:49.758Z,98642.72
2024-02-10T16:41:23.952Z,98645.41
2024-02-10T16:43:51.075Z,98642.16
2024-02-10T16:46:18.454Z,98637.31
2024-02-10T16:48:50.511Z,98646.66
2024-02-10T16:51:27.321Z,98633.28
2024-02-10T16:53:59.047Z,98648.00
2024-02-10T16:56:25.590Z,98660.78
2024-02-10T16:58:52.494Z,98646.91
2024-02-10T17:01:20.011Z,98652.47
2024-02-10T17:03:46.869Z,98651.69
2024-02-10T17:06:13.715Z,98652.72
2024-02-10T17:08:41.023Z,98662.88
2024-02-10T17:11:08.664Z,98661.28
2024-02-10T17:13:35.425Z,98655.34
2024-02-10T17:16:02.131Z,98669.00
2024-02-10T17:18:28.807Z,98661.25
2024-02-10T17:20:58.630Z,98672.75
2024-02-10T17:23:25.708Z,98668.72
2024-02-10T17:25:53.704Z,98666.31
2024-02-10T17:28:20.462Z,98659.88
2024-02-10T17:30:49.461Z,98672.69
2024-02-10T17:33:19.550Z,98667.91
2024-02-10T17:35:50.552Z,98666.78
2024-02-10T17:38:27.741Z,98669.97
2024-02-10T17:40:57.428Z,98667.03
2024-02-10T17:43:25.083Z,98669.97
2024-02-10T17:45:56.579Z,98680.91
2024-02-10T17:48:24.890Z,98676.06
2024-02-10T17:50:53.425Z,98667.56
2024-02-10T17:53:29.111Z,98668.59
2024-02-10T17:55:59.942Z,98676.06
2024-02-10T17:58:32.462Z,98667.53
2024-02-10T18:01:00.209Z,98675.03
2024-02-10T18:03:29.694Z,98677.72
2024-02-10T18:05:57.903Z,98672.91
2024-02-10T18:08:25.082Z,98687.59
2024-02-10T18:10:51.894Z,98688.97
2024-02-10T18:13:21.248Z,98686.03
2024-02-10T18:15:48.017Z,98683.06
2024-02-10T18:18:14.677Z,98684.13
2024-02-10T18:20:41.502Z,98672.09
2024-02-10T18:23:08.355Z,98679.31
2024-02-10T18:25:36.229Z,98679.03
2024-02-10T18:28:05.068Z,98685.94
2024-02-10T18:30:31.722Z,98679.28
2024-02-10T18:32:59.000Z,98681.38
2024-02-10T18:35:25.793Z,98687.00
2024-02-10T18:37:58.454Z,98681.66
2024-02-10T18:40:28.296Z,98686.72
2024-02-10T18:42:59.018Z,98680.78
2024-02-10T18:45:26.231Z,98684.25
2024-02-10T18:47:54.316Z,98685.81
2024-02-10T18:50:21.032Z,98695.19
2024-02-10T18:52:48.369Z,98687.41
2024-02-10T18:55:16.021Z,98686.63
2024-02-10T18:57:45.980Z,98689.00
2024-02-10T19:00:20.985Z,98692.44
2024-02-10T19:02:49.276Z,98686.28
2024-02-10T19:05:16.958Z,98690.81
2024-02-10T19:07:44.972Z,98693.50
2024-02-10T19:10:11.909Z,98687.09
2024-02-10T19:12:38.596Z,98691.84
2024-02-10T19:15:08.680Z,98689.16
2024-02-10T19:17:38.320Z,98686.44
2024-02-10T19:20:09.009Z,98684.81
2024-02-10T19:22:36.909Z,98680.81
2024-02-10T19:25:08.182Z,98680.34
2024-02-10T19:27:39.834Z,98684.25
2024-02-10T19:30:10.716Z,98684.50
2024-02-10T19:32:42.497Z,98676.75
2024-02-10T19:35:23.167Z,98682.09
2024-02-10T19:37:50.665Z,98684.75
2024-02-10T19:40:19.624Z,98676.50
2024-02-10T19:42:47.451Z,98673.03
2024-02-10T19:45:16.059Z,98677.81
2024-02-10T19:47:47.388Z,98677.56
2024-02-10T19:50:15.147Z,98673.78
2024-02-10T19:52:42.446Z,98672.19
2024-02-10T19:55:09.696Z,98670.81
2024-02-10T19:57:41.165Z,98680.19
2024-02-10T20:00:11.434Z,98688.69
2024-02-10T20:02:39.003Z,98677.22
2024-02-10T20:05:07.605Z,98687.91
2024-02-10T20:07:34.354Z,98676.16
2024-02-10T20:10:01.198Z,98675.59
2024-02-10T20:12:29.068Z,98671.88
2024-02-10T20:14:57.723Z,98688.50
2024-02-10T20:17:31.989Z,98679.63
2024-02-10T20:20:17.803Z,98681.53
2024-02-10T20:22:45.519Z,98681.22
2024-02-10T20:25:13.490Z,98687.34
2024-02-10T20:27:43.232Z,98673.50
2024-02-10T20:30:11.145Z,98675.34
2024-02-10T20:32:38.136Z,98680.13
2024-02-10T20:35:05.206Z,98689.75
2024-02-10T20:37:31.765Z,98682.56
2024-02-10T20:39:58.368Z,98678.03
2024-02-10T20:42:27.348Z,98675.31
2024-02-10T20:44:53.957Z,98669.72
2024-02-10T20:47:20.600Z,98673.47
2024-02-10T20:49:47.515Z,98665.44
2024-02-10T20:52:15.113Z,98674.25
2024-02-10T20:54:44.296Z,98669.13
2024-02-10T20:57:11.937Z,98665.38
2024-02-10T20:59:39.457Z,98672.88
2024-02-10T21:02:07.929Z,98664.84
2024-02-10T21:04:35.162Z,98666.44
2024-02-10T21:07:04.405Z,98657.94
2024-02-10T21:09:30.946Z,98656.66
2024-02-10T21:12:00.075Z,98652.31
2024-02-10T21:14:28.030Z,98659.25
2024-02-10T21:16:58.513Z,98662.22
2024-02-10T21:19:25.893Z,98656.84
2024-02-10T21:21:52.631Z,98667.53
2024-02-10T21:24:21.654Z,98661.31
2024-02-10T21:26:49.726Z,98661.09
2024-02-10T21:31:43.194Z,98661.31
2024-02-10T21:34:10.264Z,98655.78
2024-02-10T21:36:37.016Z,98648.53
2024-02-10T21:39:17.435Z,98665.34
2024-02-10T21:41:44.733Z,98658.91
2024-02-10T21:44:11.520Z,98654.38
2024-02-10T21:46:38.519Z,98653.56
2024-02-10T21:49:05.190Z,98657.31
2024-02-10T21:51:37.756Z,98651.44
2024-02-10T21:54:06.560Z,98643.97
2024-02-10T21:56:41.651Z,98638.88
2024-02-10T21:59:10.131Z,98638.94
2024-02-10T22:01:39.782Z,98641.03
2024-02-10T22:04:07.628Z,98630.88
2024-02-10T22:06:34.398Z,98626.91
2024-02-10T22:09:05.493Z,98627.72
2024-02-10T22:11:32.296Z,98630.06
2024-02-10T22:13:59.394Z,98618.34
2024-02-10T22:16:26.026Z,98620.78
2024-02-10T22:18:52.559Z,98624.25
2024-02-10T22:21:19.289Z,98621.50
2024-02-10T22:23:47.345Z,98619.09
2024-02-10T22:26:16.287Z,98618.84
2024-02-10T22:28:43.210Z,98624.75
2024-02-10T22:31:10.096Z,98626.03
2024-02-10T22:33:37.264Z,98628.97
2024-02-10T22:36:05.318Z,98631.13
2024-02-10T22:38:32.239Z,98629.78
2024-02-10T22:40:59.029Z,98622.03
2024-02-10T22:43:26.276Z,98637.47
2024-02-10T22:45:52.968Z,98637.47
2024-02-10T22:48:21.112Z,98626.81
2024-02-10T22:50:47.921Z,98637.25
2024-02-10T22:53:15.121Z,98630.88
2024-02-10T22:55:45.295Z,98631.34
2024-02-10T22:58:13.047Z,98633.69
2024-02-10T23:00:45.321Z,98638.56
2024-02-10T23:03:13.228Z,98637.97
2024-02-10T23:05:40.109Z,98629.47
2024-02-10T23:08:08.170Z,98620.09
2024-02-10T23:10:36.548Z,98623.03
2024-02-10T23:13:09.290Z,98620.63
2024-02-10T23:15:41.713Z,98632.72
2024-02-10T23:18:12.016Z,98627.38
2024-02-10T23:20:48.330Z,98630.28
2024-02-10T23:23:16.618Z,98617.69
2024-02-10T23:25:44.070Z,98625.41
2024-02-10T23:28:17.138Z,98624.34
2024-02-10T23:30:45.287Z,98626.19
2024-02-10T23:33:12.989Z,98620.56
2024-02-10T23:35:40.723Z,98620.03
2024-02-10T23:38:08.245Z,98623.50
2024-02-10T23:40:35.941Z,98618.41
2024-02-10T23:43:04.486Z,98614.44
2024-02-10T23:45:32.403Z,98611.00
2024-02-10T23:47:59.888Z,98612.63
2024-02-10T23:50:29.297Z,98622.19
2024-02-10T23:52:57.982Z,98611.53
2024-02-10T23:55:24.613Z,98620.38
2024-02-10T23:57:51.139Z,98628.06
